createdAt,value
2022-08-12T00:04:37.626Z,1.70
2022-08-12T00:10:59.123Z,1.88
2022-08-12T00:17:31.554Z,2.20
2022-08-12T00:23:52.446Z,2.35
2022-08-12T00:30:13.549Z,1.98
2022-08-12T00:36:34.803Z,2.20
2022-08-12T00:42:41.795Z,2.78
2022-08-12T00:48:45.242Z,2.47
2022-08-12T00:54:52.794Z,2.80
2022-08-12T01:01:04.945Z,2.78
2022-08-12T01:07:44.720Z,2.73
2022-08-12T01:13:49.186Z,2.90
2022-08-12T01:19:54.637Z,2.65
2022-08-12T01:26:00.988Z,2.92
2022-08-12T01:32:10.715Z,2.80
2022-08-12T01:38:16.554Z,2.78
2022-08-12T01:44:20.534Z,2.60
2022-08-12T01:52:15.045Z,2.72
2022-08-12T01:58:11.947Z,2.78
2022-08-12T02:04:39.339Z,2.75
2022-08-12T02:11:17.733Z,2.45
2022-08-12T02:17:55.235Z,3.03
2022-08-12T02:23:58.591Z,2.70
2022-08-12T02:30:01.140Z,3.17
2022-08-12T02:36:04.674Z,3.08
2022-08-12T02:42:10.862Z,2.45
2022-08-12T02:48:19.373Z,3.22
2022-08-12T02:54:23.510Z,3.45
2022-08-12T03:00:26.282Z,3.10
2022-08-12T03:06:38.418Z,2.95
2022-08-12T03:12:49.272Z,3.42
2022-08-12T03:18:54.702Z,3.15
2022-08-12T03:25:02.253Z,3.20
2022-08-12T03:31:06.750Z,3.35
2022-08-12T03:37:11.394Z,3.00
2022-08-12T03:43:39.776Z,2.88
2022-08-12T03:50:00.806Z,3.47
2022-08-12T03:56:21.435Z,3.25
2022-08-12T04:02:25.112Z,3.45
2022-08-12T04:08:27.696Z,3.63
2022-08-12T04:14:30.501Z,3.80
2022-08-12T04:20:32.952Z,4.10
2022-08-12T04:32:43.701Z,4.10
2022-08-12T04:38:46.781Z,3.45
2022-08-12T04:50:51.280Z,2.85
2022-08-12T05:03:07.797Z,3.42
2022-08-12T05:09:11.199Z,3.17
2022-08-12T05:15:27.794Z,3.03
2022-08-12T05:21:32.006Z,3.00
2022-08-12T05:27:34.934Z,4.03
2022-08-12T05:33:41.287Z,3.42
2022-08-12T05:39:43.834Z,3.40
2022-08-12T05:45:46.518Z,8.68
2022-08-12T05:51:48.803Z,6.40
2022-08-12T05:57:55.681Z,2.85
2022-08-12T06:03:58.111Z,3.58
2022-08-12T06:10:01.221Z,2.67
2022-08-12T06:16:03.729Z,3.40
2022-08-12T06:22:06.022Z,2.70
2022-08-12T06:28:17.810Z,1.73
2022-08-12T06:35:24.995Z,2.83
2022-08-12T06:41:02.886Z,2.92
2022-08-12T06:47:05.391Z,1.92
2022-08-12T06:53:09.692Z,2.10
2022-08-12T06:59:15.175Z,2.08
2022-08-12T07:05:24.793Z,2.13
2022-08-12T07:11:29.465Z,1.67
2022-08-12T07:17:38.191Z,1.80
2022-08-12T07:23:42.105Z,2.10
2022-08-12T07:29:59.492Z,2.13
2022-08-12T07:36:12.418Z,1.90
2022-08-12T07:42:14.728Z,1.70
2022-08-12T07:48:17.561Z,6.25
2022-08-12T07:54:20.059Z,1.90
2022-08-12T08:00:22.558Z,2.10
2022-08-12T08:06:25.080Z,7.95
2022-08-12T08:12:47.340Z,3.78
2022-08-12T08:18:50.173Z,3.25
2022-08-12T08:24:57.928Z,1.92
2022-08-12T08:31:00.130Z,1.92
2022-08-12T08:37:07.705Z,1.95
2022-08-12T08:43:13.118Z,1.85
2022-08-12T08:49:16.399Z,2.00
2022-08-12T08:55:24.074Z,1.92
2022-08-12T09:01:37.425Z,1.60
2022-08-12T09:07:58.990Z,1.88
2022-08-12T09:14:18.739Z,1.67
2022-08-12T09:20:27.586Z,1.55
2022-08-12T09:26:32.113Z,2.00
2022-08-12T09:33:05.330Z,1.77
2022-08-12T09:40:06.479Z,2.10
2022-08-12T09:46:19.336Z,2.28
2022-08-12T09:51:55.822Z,3.33
2022-08-12T09:58:44.953Z,2.45
2022-08-12T10:04:20.990Z,1.90
2022-08-12T10:10:25.065Z,1.50
2022-08-12T10:16:39.142Z,2.13
2022-08-12T10:30:02.127Z,1.60
2022-08-12T10:35:38.177Z,1.85
2022-08-12T10:42:00.193Z,2.08
2022-08-12T10:48:19.474Z,2.30
2022-08-12T10:54:27.963Z,1.45
2022-08-12T11:00:35.692Z,2.00
2022-08-12T11:07:08.935Z,2.20
2022-08-12T11:13:16.560Z,4.25
2022-08-12T11:19:22.340Z,2.53
2022-08-12T11:25:24.903Z,4.10
2022-08-12T11:32:01.696Z,1.92
2022-08-12T11:38:05.603Z,2.42
2022-08-12T11:44:35.530Z,2.25
2022-08-12T11:50:34.670Z,1.77
2022-08-12T11:56:59.031Z,2.17
2022-08-12T12:03:02.899Z,2.22
2022-08-12T12:09:08.051Z,1.75
2022-08-12T12:15:12.391Z,1.90
2022-08-12T12:21:17.031Z,2.08
2022-08-12T12:27:20.728Z,2.05
2022-08-12T12:33:57.380Z,1.77
2022-08-12T12:40:00.838Z,2.17
2022-08-12T12:46:03.055Z,2.50
2022-08-12T12:52:19.783Z,1.92
2022-08-12T12:58:23.363Z,1.80
2022-08-12T13:04:25.998Z,2.22
2022-08-12T13:10:36.512Z,2.28
2022-08-12T13:16:43.771Z,2.00
2022-08-12T13:22:47.663Z,15.32
2022-08-12T13:28:55.690Z,2.90
2022-08-12T13:35:04.261Z,1.80
2022-08-12T13:41:39.567Z,2.28
2022-08-12T13:47:58.265Z,2.17
2022-08-12T13:54:09.786Z,2.30
2022-08-12T14:06:17.141Z,2.10
2022-08-12T14:12:24.940Z,2.42
2022-08-12T14:18:30.504Z,2.50
2022-08-12T14:24:40.505Z,2.40
2022-08-12T14:30:59.849Z,1.90
2022-08-12T14:37:07.239Z,2.78
2022-08-12T14:43:15.508Z,2.38
2022-08-12T14:50:37.502Z,2.53
2022-08-12T15:02:10.396Z,2.47
2022-08-12T15:08:22.391Z,3.10
2022-08-12T15:14:30.283Z,2.70
2022-08-12T15:20:38.129Z,3.38
2022-08-12T15:26:42.601Z,3.17
2022-08-12T15:32:48.591Z,4.22
2022-08-12T15:38:51.266Z,4.03
2022-08-12T15:44:53.769Z,5.78
2022-08-12T15:50:57.843Z,9.13
2022-08-12T15:57:00.181Z,8.98
2022-08-12T16:03:14.211Z,8.90
2022-08-12T16:09:31.797Z,9.65
2022-08-12T16:16:01.581Z,10.80
2022-08-12T16:22:05.222Z,10.90
2022-08-12T16:28:09.767Z,9.10
2022-08-12T16:34:25.859Z,9.13
2022-08-12T16:40:46.301Z,9.30
2022-08-12T16:46:55.539Z,9.07
2022-08-12T16:53:03.340Z,8.38
2022-08-12T16:59:15.809Z,8.60
2022-08-12T17:05:19.870Z,8.27
2022-08-12T17:11:24.969Z,9.05
2022-08-12T17:17:39.343Z,9.10
2022-08-12T17:23:53.374Z,9.67
2022-08-12T17:30:03.227Z,8.68
2022-08-12T17:36:07.578Z,9.77
2022-08-12T17:42:32.931Z,7.93
2022-08-12T17:48:38.650Z,8.73
2022-08-12T17:54:41.447Z,8.13
2022-08-12T18:00:47.015Z,8.48
2022-08-12T18:06:50.597Z,8.00
2022-08-12T18:12:53.867Z,8.68
2022-08-12T18:18:59.875Z,9.27
2022-08-12T18:26:13.062Z,9.00
2022-08-12T18:31:44.386Z,9.68
2022-08-12T18:37:57.572Z,8.70
2022-08-12T18:44:09.729Z,9.45
2022-08-12T18:50:15.544Z,9.35
2022-08-12T18:56:33.224Z,9.32
2022-08-12T19:02:40.127Z,9.63
2022-08-12T19:08:47.065Z,10.35
2022-08-12T19:14:52.057Z,9.20
2022-08-12T19:21:16.027Z,9.57
2022-08-12T19:27:19.516Z,9.40
2022-08-12T19:33:24.102Z,9.57
2022-08-12T19:39:30.005Z,9.77
2022-08-12T19:45:43.619Z,8.85
2022-08-12T19:51:51.356Z,9.32
2022-08-12T19:58:01.427Z,9.40
2022-08-12T20:04:06.306Z,11.32
2022-08-12T20:10:16.515Z,10.38
2022-08-12T20:16:50.817Z,9.52
2022-08-12T20:22:48.944Z,9.13
2022-08-12T20:28:51.632Z,9.75
2022-08-12T20:34:54.642Z,9.45
2022-08-12T20:40:56.892Z,9.60
2022-08-12T20:47:18.748Z,9.90
2022-08-12T20:53:27.752Z,9.35
2022-08-12T20:59:47.961Z,9.70
2022-08-12T21:06:13.409Z,9.70
2022-08-12T21:12:28.412Z,9.35
2022-08-12T21:18:36.023Z,10.20
2022-08-12T21:24:46.810Z,9.73
2022-08-12T21:31:11.611Z,9.35
2022-08-12T21:37:26.409Z,9.83
2022-08-12T21:43:44.756Z,9.18
2022-08-12T21:49:55.631Z,9.77
2022-08-12T21:56:06.154Z,10.00
2022-08-12T22:02:30.959Z,9.93
2022-08-12T22:08:33.698Z,10.07
2022-08-12T22:14:35.902Z,9.73
2022-08-12T22:20:40.561Z,10.07
2022-08-12T22:26:47.529Z,10.07
2022-08-12T22:32:51.285Z,9.38
2022-08-12T22:38:58.976Z,9.95
2022-08-12T22:45:23.165Z,9.80
2022-08-12T22:51:25.916Z,10.40
2022-08-12T22:57:49.049Z,9.52
2022-08-12T23:03:54.012Z,9.80
2022-08-12T23:09:56.809Z,9.55
2022-08-12T23:16:01.194Z,9.68
2022-08-12T23:22:36.398Z,8.80
2022-08-12T23:28:53.255Z,10.13
2022-08-12T23:34:56.265Z,9.13
2022-08-12T23:41:00.038Z,9.73
2022-08-12T23:47:10.543Z,11.02
2022-08-12T23:53:22.770Z,10.15
2022-08-12T23:59:29.984Z,10.15
